This is the latest recevied weather packets stored in our database for station/object SP2TMT-10. If no packets are shown the sender has not sent any weather packets the latest 10 day(s).
| Time | Temp. | Humidity | Pressure | Rain* | Wind** | Luminosity | Snow |
|---|---|---|---|---|---|---|---|
| 1777135954 | 19.44° C | 37% | 1005.4 hPa | - | - | - | - |
| 1777135051 | 19.44° C | 37% | 1005.5 hPa | - | - | - | - |
| 1777134151 | 19.44° C | 38% | 1005.7 hPa | - | - | - | - |
| 1777133251 | 19.44° C | 38% | 1005.8 hPa | - | - | - | - |
| 1777132351 | 19.44° C | 38% | 1005.9 hPa | - | - | - | - |
| 1777131450 | 19.44° C | 39% | 1006 hPa | - | - | - | - |
| 1777130550 | 19.44° C | 39% | 1006.1 hPa | - | - | - | - |
| 1777129650 | 19.44° C | 39% | 1006.3 hPa | - | - | - | - |
| 1777128750 | 19.44° C | 39% | 1006.2 hPa | - | - | - | - |
| 1777127850 | 19.44° C | 40% | 1006.3 hPa | - | - | - | - |
| 1777126950 | 19.44° C | 41% | 1006.4 hPa | - | - | - | - |
| 1777126050 | 19.44° C | 42% | 1006.4 hPa | - | - | - | - |
| 1777125150 | 19.44° C | 43% | 1006.6 hPa | - | - | - | - |
| 1777124244 | 19.44° C | 47% | 1006.7 hPa | - | - | - | - |
| 1777123344 | 19.44° C | 50% | 1006.8 hPa | - | - | - | - |
| 1777122444 | 19.44° C | 54% | 1006.8 hPa | - | - | - | - |
| 1777121544 | 18.89° C | 50% | 1007 hPa | - | - | - | - |
| 1777120644 | 20.56° C | 52% | 1007.2 hPa | - | - | - | - |
| 1777119744 | 18.33° C | 39% | 1007.3 hPa | - | - | - | - |
| 1777118844 | 18.33° C | 38% | 1007.3 hPa | - | - | - | - |
| 1777117944 | 18.33° C | 35% | 1007.3 hPa | - | - | - | - |
| 1777117044 | 17.78° C | 34% | 1007.5 hPa | - | - | - | - |
| 1777116144 | 18.33° C | 36% | 1007.4 hPa | - | - | - | - |
| 1777115243 | 18.89° C | 37% | 1007.5 hPa | - | - | - | - |
| 1777114343 | 18.33° C | 37% | 1007.4 hPa | - | - | - | - |
* Rain since midnight (hover to see other rain measurements)
** Current wind speed in m/s (hover to see current wind gust speed)